Time;durP1;ratioP1;P1;durP2;ratioP2;P2;SDS_P1;SDS_P2;PMS_P1;PMS_P2;Temp;Humidity;BMP_temperature;BMP_pressure;BME280_temperature;BME280_humidity;BME280_pressure;Samples;Min_cycle;Max_cycle;Signal;HPM_P1;HPM_P2
2022/07/29 00:01:15;;;;;;;2.53;1.40;;;21.40;74.10;;;;;;5024647;28;20206;-72
2022/07/29 00:03:40;;;;;;;1.23;1.05;;;21.50;74.50;;;;;;5039401;28;20182;-72
2022/07/29 00:06:10;;;;;;;1.77;1.17;;;21.40;74.10;;;;;;5024660;28;20178;-72
2022/07/29 00:08:36;;;;;;;2.70;1.30;;;21.40;74.20;;;;;;5022136;28;20178;-72
2022/07/29 00:11:02;;;;;;;2.53;1.20;;;21.40;74.20;;;;;;5026176;28;20235;-72
2022/07/29 00:13:30;;;;;;;2.58;1.20;;;21.40;74.30;;;;;;5024310;28;20179;-72
2022/07/29 00:15:56;;;;;;;2.65;1.20;;;21.40;74.40;;;;;;5023231;28;20198;-72
2022/07/29 00:18:21;;;;;;;2.40;1.30;;;21.40;74.60;;;;;;5026442;28;20266;-71
2022/07/29 00:20:47;;;;;;;3.20;1.30;;;21.40;74.70;;;;;;5022296;28;20233;-72
2022/07/29 00:23:14;;;;;;;1.77;1.17;;;21.50;74.90;;;;;;5023792;28;20301;-72
2022/07/29 00:25:42;;;;;;;1.10;1.00;;;21.50;75.00;;;;;;5023089;28;20202;-72
2022/07/29 00:28:08;;;;;;;3.08;1.42;;;21.50;75.00;;;;;;5023530;28;20228;-71
2022/07/29 00:30:36;;;;;;;2.05;1.23;;;21.40;74.90;;;;;;5024907;28;20182;-72
2022/07/29 00:33:04;;;;;;;2.15;1.00;;;21.40;75.00;;;;;;5028276;28;20269;-72
2022/07/29 00:35:44;;;;;;;1.77;1.42;;;21.40;75.20;;;;;;5022158;28;20309;-72
2022/07/29 00:38:14;;;;;;;2.35;1.30;;;21.40;75.40;;;;;;5025861;28;20182;-73
2022/07/29 00:40:41;;;;;;;2.05;1.23;;;21.40;76.00;;;;;;5019117;28;20217;-73
2022/07/29 00:43:07;;;;;;;1.52;1.10;;;21.30;75.70;;;;;;5030391;28;20179;-72
2022/07/29 00:45:33;;;;;;;3.50;1.35;;;21.30;75.80;;;;;;5027515;28;20205;-71
2022/07/29 00:48:03;;;;;;;1.42;1.13;;;21.30;76.00;;;;;;5020206;28;20226;-72
2022/07/29 00:50:29;;;;;;;2.50;1.00;;;21.30;76.50;;;;;;5022145;28;20193;-71
2022/07/29 00:52:54;;;;;;;2.70;1.10;;;21.20;76.20;;;;;;5031459;28;20247;-74
2022/07/29 00:55:22;;;;;;;2.10;1.20;;;21.20;76.40;;;;;;5029695;28;20201;-74
2022/07/29 00:57:49;;;;;;;1.85;1.25;;;21.20;76.90;;;;;;5041302;28;20232;-72
2022/07/29 01:00:21;;;;;;;1.70;1.20;;;21.20;76.80;;;;;;5022336;28;20198;-72
2022/07/29 01:02:53;;;;;;;2.35;1.15;;;21.10;77.20;;;;;;5022682;28;20284;-72
2022/07/29 01:05:23;;;;;;;3.13;1.35;;;21.10;77.00;;;;;;5024851;28;20221;-72
2022/07/29 01:07:52;;;;;;;1.73;1.17;;;21.10;77.60;;;;;;5017995;28;20185;-72
2022/07/29 01:10:19;;;;;;;2.67;1.25;;;21.00;77.50;;;;;;5023212;28;20202;-73
2022/07/29 01:12:49;;;;;;;3.38;1.33;;;21.00;77.50;;;;;;5022884;28;20174;-72
2022/07/29 01:15:16;;;;;;;2.75;1.30;;;21.00;77.90;;;;;;5017135;28;21052;-72
2022/07/29 01:18:02;;;;;;;2.55;1.30;;;20.90;77.70;;;;;;5020962;28;20205;-71
2022/07/29 01:21:05;;;;;;;1.88;1.10;;;20.90;79.00;;;;;;5020135;28;20213;-72
2022/07/29 01:24:06;;;;;;;1.65;1.00;;;20.80;79.20;;;;;;5040985;28;20205;-72
2022/07/29 01:26:42;;;;;;;2.47;1.50;;;20.80;79.50;;;;;;5040315;28;20196;-72
2022/07/29 01:29:12;;;;;;;2.55;1.10;;;20.80;78.90;;;;;;5039476;28;20239;-72
2022/07/29 01:31:51;;;;;;;2.15;1.40;;;20.70;79.50;;;;;;5031254;28;20261;-72
2022/07/29 01:34:23;;;;;;;2.28;1.70;;;20.70;80.40;;;;;;5021418;28;20182;-71
2022/07/29 01:36:58;;;;;;;1.60;1.40;;;20.70;80.50;;;;;;5032621;28;20208;-72
2022/07/29 01:39:45;;;;;;;2.60;1.23;;;20.70;80.60;;;;;;5020724;28;20198;-72
2022/07/29 01:42:28;;;;;;;1.85;1.40;;;20.70;82.10;;;;;;5021024;28;20241;-72
2022/07/29 01:45:09;;;;;;;2.25;1.30;;;20.60;82.30;;;;;;5033006;28;20229;-72
2022/07/29 01:48:01;;;;;;;1.70;1.15;;;20.60;81.30;;;;;;5017186;28;20181;-72
2022/07/29 01:50:34;;;;;;;1.98;1.10;;;20.60;82.50;;;;;;5018164;28;20190;-72
2022/07/29 01:53:04;;;;;;;2.45;1.27;;;20.60;81.90;;;;;;5022995;28;20202;-72
2022/07/29 01:55:34;;;;;;;2.30;1.30;;;20.60;81.40;;;;;;5017695;28;20205;-71
2022/07/29 01:58:02;;;;;;;2.15;1.30;;;20.50;81.60;;;;;;5023779;28;20190;-72
2022/07/29 02:00:31;;;;;;;2.45;1.45;;;20.50;81.80;;;;;;5021051;28;20216;-71
2022/07/29 02:03:03;;;;;;;1.73;1.27;;;20.50;82.30;;;;;;5023008;28;20193;-72
2022/07/29 02:05:30;;;;;;;1.98;1.23;;;20.50;82.70;;;;;;5020783;28;20222;-72
2022/07/29 02:07:59;;;;;;;2.00;1.23;;;20.50;82.80;;;;;;5019413;28;20213;-73
2022/07/29 02:10:27;;;;;;;2.78;1.50;;;20.40;83.30;;;;;;5024416;28;20189;-72
2022/07/29 02:12:55;;;;;;;3.95;1.40;;;20.40;83.40;;;;;;5019691;28;20179;-73
2022/07/29 02:15:27;;;;;;;2.63;1.30;;;20.40;83.40;;;;;;5024499;28;20272;-72
2022/07/29 02:18:00;;;;;;;2.25;1.48;;;20.30;83.90;;;;;;5016532;28;20191;-71
2022/07/29 02:20:30;;;;;;;2.90;1.30;;;20.30;84.30;;;;;;5018727;28;20176;-72
2022/07/29 02:23:01;;;;;;;3.28;1.60;;;20.20;83.70;;;;;;5014272;28;20288;-73
2022/07/29 02:25:30;;;;;;;2.67;1.50;;;20.20;83.90;;;;;;5019849;28;20179;-73
2022/07/29 02:28:00;;;;;;;2.15;1.30;;;20.10;84.50;;;;;;5022903;28;20182;-71
2022/07/29 02:30:27;;;;;;;1.73;1.20;;;20.10;84.30;;;;;;5017658;28;20204;-73
2022/07/29 02:32:54;;;;;;;1.83;1.25;;;20.00;84.50;;;;;;5041890;28;20202;-73
2022/07/29 02:35:21;;;;;;;1.90;1.23;;;20.00;84.30;;;;;;5027152;28;20175;-71
2022/07/29 02:38:49;;;;;;;2.83;1.33;;;19.90;84.40;;;;;;5038050;28;20201;-72
2022/07/29 02:40:36;;;;;;;4.93;1.52;;;19.90;84.20;;;;;;5017100;28;20178;-72
2022/07/29 02:43:04;;;;;;;3.88;1.58;;;19.80;84.50;;;;;;5024845;28;20197;-72
2022/07/29 02:45:31;;;;;;;3.30;1.48;;;19.80;85.40;;;;;;5023119;28;20253;-72
2022/07/29 02:48:03;;;;;;;1.95;1.20;;;19.70;84.50;;;;;;5031115;28;20178;-72
2022/07/29 02:50:48;;;;;;;3.00;1.33;;;19.60;84.70;;;;;;5022795;28;20222;-71
2022/07/29 02:53:23;;;;;;;1.58;1.20;;;19.60;85.70;;;;;;5025605;28;20180;-71
2022/07/29 02:55:58;;;;;;;2.08;1.02;;;19.60;86.10;;;;;;5023365;28;20212;-73
2022/07/29 02:58:40;;;;;;;2.03;1.27;;;19.50;85.90;;;;;;5021501;28;20316;-72
2022/07/29 03:01:17;;;;;;;2.90;1.17;;;19.50;87.40;;;;;;5028566;28;20181;-73
2022/07/29 03:03:48;;;;;;;3.08;1.38;;;19.50;87.30;;;;;;5022162;28;20224;-73
2022/07/29 03:06:17;;;;;;;2.72;1.15;;;19.50;86.80;;;;;;5023979;28;20244;-72
2022/07/29 03:08:44;;;;;;;2.20;1.20;;;19.50;86.90;;;;;;5026808;28;20259;-72
2022/07/29 03:11:11;;;;;;;2.08;1.15;;;19.50;86.70;;;;;;5024037;28;20184;-72
2022/07/29 03:13:37;;;;;;;4.03;1.33;;;19.50;87.00;;;;;;5018234;28;20209;-72
2022/07/29 03:16:04;;;;;;;1.73;1.00;;;19.50;87.00;;;;;;5026322;28;20194;-72
2022/07/29 03:18:30;;;;;;;2.50;1.33;;;19.50;87.20;;;;;;5025179;28;20179;-72
2022/07/29 03:21:01;;;;;;;1.92;1.30;;;19.50;87.60;;;;;;5020427;28;20264;-73
2022/07/29 03:23:29;;;;;;;1.33;1.10;;;19.50;87.70;;;;;;5023286;28;20159;-73
2022/07/29 03:25:56;;;;;;;2.10;1.30;;;19.50;87.80;;;;;;5024566;28;20175;-72
2022/07/29 03:28:22;;;;;;;1.95;1.13;;;19.50;88.20;;;;;;5024800;28;21046;-72
2022/07/29 03:30:51;;;;;;;2.60;1.35;;;19.50;88.10;;;;;;5025591;28;20186;-72
2022/07/29 03:33:19;;;;;;;2.15;1.20;;;19.50;88.10;;;;;;5023791;28;20237;-71
2022/07/29 03:35:47;;;;;;;2.63;1.33;;;19.50;88.00;;;;;;5024362;28;20272;-69
2022/07/29 03:38:13;;;;;;;1.63;1.15;;;19.50;88.10;;;;;;5025131;28;20179;-70
2022/07/29 03:40:47;;;;;;;3.05;1.33;;;19.40;87.90;;;;;;5021266;28;20281;-72
2022/07/29 03:43:14;;;;;;;3.40;1.27;;;19.40;88.50;;;;;;5042951;28;20198;-72
2022/07/29 03:45:44;;;;;;;2.28;1.35;;;19.30;88.10;;;;;;5027497;28;20212;-71
2022/07/29 03:48:19;;;;;;;1.75;1.20;;;19.30;88.60;;;;;;5029372;28;20182;-73
2022/07/29 03:50:48;;;;;;;3.35;1.30;;;19.20;88.90;;;;;;5016914;28;20202;-73
2022/07/29 03:53:14;;;;;;;2.38;1.30;;;19.20;88.70;;;;;;5026036;28;20182;-72
2022/07/29 03:55:44;;;;;;;1.70;1.27;;;19.20;88.90;;;;;;5023401;28;20193;-72
2022/07/29 03:58:17;;;;;;;2.15;1.33;;;19.20;89.50;;;;;;5022073;28;20222;-73
2022/07/29 04:00:43;;;;;;;1.73;1.30;;;19.20;89.30;;;;;;5025535;28;20183;-73
2022/07/29 04:03:10;;;;;;;2.50;1.58;;;19.20;89.40;;;;;;5022800;28;20237;-73
2022/07/29 04:05:35;;;;;;;3.55;1.40;;;19.20;89.70;;;;;;5023492;28;20197;-73
2022/07/29 04:08:01;;;;;;;2.75;1.27;;;19.20;89.70;;;;;;5024902;28;20190;-72
2022/07/29 04:10:27;;;;;;;2.67;1.52;;;19.10;89.90;;;;;;5028251;28;20271;-73
2022/07/29 04:12:53;;;;;;;3.30;1.42;;;19.10;90.00;;;;;;5022848;28;20252;-73
2022/07/29 04:15:18;;;;;;;2.03;1.27;;;19.10;90.10;;;;;;5024105;28;20178;-73
2022/07/29 04:17:44;;;;;;;2.25;1.30;;;19.10;90.20;;;;;;5021543;28;20206;-73
2022/07/29 04:20:13;;;;;;;1.45;1.33;;;19.10;90.40;;;;;;5020319;28;20194;-72
2022/07/29 04:22:39;;;;;;;2.90;1.80;;;19.20;90.50;;;;;;5022238;28;20189;-72
2022/07/29 04:25:08;;;;;;;4.63;3.00;;;19.20;90.70;;;;;;5024069;28;20272;-73
2022/07/29 04:27:59;;;;;;;2.30;1.90;;;19.10;90.70;;;;;;5021784;28;20197;-72
2022/07/29 04:30:19;;;;;;;3.13;1.92;;;19.20;90.80;;;;;;5028399;28;20294;-72
2022/07/29 04:32:45;;;;;;;3.05;2.13;;;19.20;90.90;;;;;;5023831;28;20210;-72
2022/07/29 04:35:13;;;;;;;3.88;1.80;;;19.20;90.90;;;;;;5020774;28;20190;-72
2022/07/29 04:37:38;;;;;;;2.40;1.90;;;19.20;91.30;;;;;;5019525;28;20217;-73
2022/07/29 04:40:05;;;;;;;2.78;1.60;;;19.20;91.20;;;;;;5020446;28;20198;-71
2022/07/29 04:42:30;;;;;;;5.43;1.65;;;19.30;91.30;;;;;;5022902;28;20183;-72
2022/07/29 04:44:56;;;;;;;3.47;1.80;;;19.30;91.40;;;;;;5022572;28;20209;-72
2022/07/29 04:47:24;;;;;;;20.60;15.93;;;19.30;91.50;;;;;;5025807;28;20189;-72
2022/07/29 04:49:51;;;;;;;10.18;7.38;;;19.30;91.60;;;;;;5022327;28;20186;-73
2022/07/29 04:52:17;;;;;;;5.32;4.25;;;19.30;91.60;;;;;;5019417;28;20203;-73
2022/07/29 04:54:42;;;;;;;3.58;2.80;;;19.30;91.70;;;;;;5020757;28;20183;-71
2022/07/29 04:57:10;;;;;;;3.83;2.47;;;19.30;91.70;;;;;;5023571;28;20221;-73
2022/07/29 04:59:41;;;;;;;2.42;1.55;;;19.30;91.80;;;;;;5021689;28;20195;-72
2022/07/29 05:02:08;;;;;;;2.75;1.60;;;19.30;92.00;;;;;;5023635;28;20172;-72
2022/07/29 05:04:34;;;;;;;2.50;1.70;;;19.30;91.90;;;;;;5024383;28;20190;-72
2022/07/29 05:07:00;;;;;;;2.55;1.52;;;19.30;92.00;;;;;;5023914;28;20251;-72
2022/07/29 05:09:25;;;;;;;2.03;1.50;;;19.40;92.10;;;;;;5021625;28;20192;-71
2022/07/29 05:11:53;;;;;;;3.55;1.50;;;19.40;92.50;;;;;;5024477;28;20189;-68
2022/07/29 05:14:21;;;;;;;3.60;1.60;;;19.40;92.40;;;;;;5023662;28;20202;-67
2022/07/29 05:16:48;;;;;;;3.33;1.70;;;19.50;92.40;;;;;;5025465;28;20214;-67
2022/07/29 05:19:14;;;;;;;2.45;1.30;;;19.50;92.50;;;;;;5020198;28;20785;-67
2022/07/29 05:21:40;;;;;;;3.88;1.63;;;19.60;92.60;;;;;;5022334;28;20179;-68
2022/07/29 05:24:05;;;;;;;3.78;1.33;;;19.60;92.60;;;;;;5023701;28;20273;-67
2022/07/29 05:26:36;;;;;;;5.30;1.70;;;19.70;92.70;;;;;;5025780;28;20224;-67
2022/07/29 05:29:04;;;;;;;2.70;1.38;;;19.70;92.90;;;;;;5023826;28;20281;-68
2022/07/29 05:31:31;;;;;;;2.92;1.83;;;19.80;92.90;;;;;;5023409;28;20181;-64
2022/07/29 05:33:59;;;;;;;2.70;1.42;;;19.90;92.90;;;;;;5040380;28;20182;-67
2022/07/29 05:36:27;;;;;;;3.45;1.50;;;19.90;93.00;;;;;;5024209;28;20206;-67
2022/07/29 05:38:53;;;;;;;2.20;1.60;;;20.00;93.00;;;;;;5020348;28;20175;-73
2022/07/29 05:41:19;;;;;;;1.95;1.50;;;20.10;93.30;;;;;;5022964;28;20170;-73
2022/07/29 05:43:47;;;;;;;2.78;1.48;;;20.10;93.00;;;;;;5023016;28;20171;-73
2022/07/29 05:46:15;;;;;;;1.95;1.40;;;20.20;93.00;;;;;;5021697;28;20178;-72
2022/07/29 05:48:42;;;;;;;3.58;1.50;;;20.20;92.90;;;;;;5019976;28;20210;-73
2022/07/29 05:51:08;;;;;;;3.22;1.60;;;20.30;92.90;;;;;;5020195;28;20269;-73
2022/07/29 05:53:34;;;;;;;1.88;1.42;;;20.30;92.80;;;;;;5022017;28;20217;-73
2022/07/29 05:56:04;;;;;;;2.95;1.50;;;20.30;92.80;;;;;;5036439;28;20230;-72
2022/07/29 05:58:30;;;;;;;4.20;1.80;;;20.30;92.80;;;;;;5024728;28;20195;-73
2022/07/29 06:00:58;;;;;;;3.95;1.60;;;20.40;92.70;;;;;;5017609;28;20175;-72
2022/07/29 06:03:30;;;;;;;2.47;1.50;;;20.40;92.50;;;;;;5022320;28;20174;-72
2022/07/29 06:05:57;;;;;;;3.85;1.55;;;20.40;92.60;;;;;;5020552;28;20186;-72
2022/07/29 06:08:23;;;;;;;4.18;1.50;;;20.40;92.50;;;;;;5024214;28;20197;-73
2022/07/29 06:10:51;;;;;;;3.03;1.50;;;20.50;92.50;;;;;;5021472;28;20280;-72
2022/07/29 06:13:16;;;;;;;3.20;1.60;;;20.50;92.40;;;;;;5022941;28;20268;-73
2022/07/29 06:15:42;;;;;;;2.60;1.50;;;20.50;92.30;;;;;;5021707;28;20174;-74
2022/07/29 06:18:09;;;;;;;4.45;1.70;;;20.40;92.20;;;;;;5024507;28;20183;-74
2022/07/29 06:20:38;;;;;;;3.15;1.50;;;20.40;92.20;;;;;;5021979;28;20269;-73
2022/07/29 06:23:04;;;;;;;4.05;1.70;;;20.40;92.30;;;;;;5022453;28;20179;-73
2022/07/29 06:25:30;;;;;;;2.78;1.50;;;20.30;92.30;;;;;;5023623;28;20341;-73
2022/07/29 06:27:56;;;;;;;2.72;1.42;;;20.30;92.40;;;;;;5019147;28;20260;-72
2022/07/29 06:30:24;;;;;;;2.17;1.50;;;20.30;92.50;;;;;;5018354;28;20178;-73
2022/07/29 06:32:50;;;;;;;4.28;1.88;;;20.40;92.70;;;;;;5026391;28;20217;-73
2022/07/29 06:35:21;;;;;;;3.10;1.42;;;20.40;92.80;;;;;;5022925;28;20173;-74
2022/07/29 06:37:49;;;;;;;3.80;1.55;;;20.50;92.90;;;;;;5020065;28;20201;-73
2022/07/29 06:43:01;;;;;;;4.05;1.55;;;20.70;92.90;;;;;;5024584;28;20193;-74
2022/07/29 06:45:27;;;;;;;3.83;1.60;;;20.80;92.90;;;;;;5025443;28;20195;-72
2022/07/29 06:47:52;;;;;;;3.58;1.30;;;20.90;92.80;;;;;;5022600;28;20197;-73
2022/07/29 06:50:18;;;;;;;3.13;1.30;;;21.00;92.70;;;;;;5024715;28;20178;-73
2022/07/29 06:52:44;;;;;;;2.42;1.45;;;21.10;92.70;;;;;;5051875;23;20565;-72
2022/07/29 06:55:10;;;;;;;2.63;1.30;;;21.10;92.60;;;;;;5002484;28;20190;-73
2022/07/29 06:57:38;;;;;;;2.38;1.52;;;21.20;92.60;;;;;;4996014;28;20213;-73
2022/07/29 07:00:05;;;;;;;3.97;1.40;;;21.30;92.70;;;;;;4995586;28;20210;-73
2022/07/29 07:02:31;;;;;;;1.27;1.02;;;21.40;92.70;;;;;;4999726;28;20172;-71
2022/07/29 07:04:57;;;;;;;3.63;1.40;;;21.50;92.80;;;;;;4998435;28;20214;-71
2022/07/29 07:07:22;;;;;;;4.85;1.40;;;21.60;92.70;;;;;;5001004;28;20187;-74
2022/07/29 07:09:48;;;;;;;2.47;1.30;;;21.70;92.70;;;;;;5001772;28;20187;-70
2022/07/29 07:12:14;;;;;;;2.63;1.38;;;21.80;92.60;;;;;;4998467;28;20193;-73
2022/07/29 07:14:42;;;;;;;2.55;1.27;;;21.90;92.50;;;;;;5000491;28;20214;-73
2022/07/29 07:17:07;;;;;;;5.70;1.70;;;22.00;92.20;;;;;;5003986;28;20207;-65
2022/07/29 07:19:35;;;;;;;4.20;1.50;;;22.10;92.10;;;;;;4995938;28;20193;-69
2022/07/29 07:22:01;;;;;;;3.85;1.38;;;22.20;91.90;;;;;;4995927;28;20183;-68
2022/07/29 07:24:27;;;;;;;2.83;1.63;;;22.30;91.90;;;;;;5001685;28;20223;-66
2022/07/29 07:26:53;;;;;;;2.72;1.50;;;22.30;91.80;;;;;;5000143;28;20176;-66
2022/07/29 07:29:21;;;;;;;2.75;1.40;;;22.40;91.70;;;;;;5001884;28;20183;-68
2022/07/29 07:31:49;;;;;;;4.45;1.30;;;22.50;91.50;;;;;;5003655;28;20199;-65
2022/07/29 07:34:15;;;;;;;1.30;1.10;;;22.50;91.30;;;;;;5008128;28;20184;-68
2022/07/29 07:36:40;;;;;;;4.60;1.30;;;22.60;91.20;;;;;;5008879;28;20210;-68
2022/07/29 07:39:06;;;;;;;1.92;1.10;;;22.60;91.00;;;;;;5006194;28;20172;-65
2022/07/29 07:41:32;;;;;;;2.42;1.33;;;22.70;90.70;;;;;;5006619;28;20180;-67
2022/07/29 07:43:57;;;;;;;3.15;1.33;;;22.70;90.60;;;;;;5007724;28;20221;-66
2022/07/29 07:46:23;;;;;;;3.70;1.45;;;22.70;90.40;;;;;;5004778;28;20182;-65
2022/07/29 07:48:49;;;;;;;3.25;1.75;;;22.90;90.40;;;;;;5002077;28;20187;-74
2022/07/29 07:51:14;;;;;;;3.63;1.67;;;22.90;90.40;;;;;;5003646;28;20187;-72
2022/07/29 07:53:40;;;;;;;5.63;2.03;;;23.00;90.40;;;;;;5002666;28;20207;-73
2022/07/29 07:56:06;;;;;;;2.38;1.50;;;23.00;90.30;;;;;;5000086;28;20206;-74
2022/07/29 07:58:32;;;;;;;4.03;1.60;;;23.00;90.40;;;;;;5001616;28;20230;-75
2022/07/29 08:01:00;;;;;;;5.80;1.95;;;23.10;90.40;;;;;;5005047;28;20175;-72
2022/07/29 08:03:26;;;;;;;3.30;1.45;;;23.10;90.40;;;;;;5003587;28;20217;-73
2022/07/29 08:05:54;;;;;;;5.53;1.88;;;23.20;90.50;;;;;;5001169;28;20172;-71
2022/07/29 08:08:20;;;;;;;3.75;1.42;;;23.20;90.40;;;;;;5006086;28;20183;-72
2022/07/29 08:10:52;;;;;;;3.55;1.90;;;23.30;90.50;;;;;;5004234;28;20270;-72
2022/07/29 08:13:18;;;;;;;3.08;1.30;;;23.40;90.40;;;;;;5007872;28;20246;-73
2022/07/29 08:15:45;;;;;;;3.20;1.63;;;23.50;90.30;;;;;;5003294;28;20218;-73
2022/07/29 08:18:15;;;;;;;3.00;1.52;;;23.60;90.60;;;;;;5002195;28;20187;-73
2022/07/29 08:20:41;;;;;;;3.45;1.65;;;23.60;90.00;;;;;;5004786;28;20176;-71
2022/07/29 08:23:13;;;;;;;5.00;1.77;;;23.70;90.10;;;;;;5006269;28;20214;-69
2022/07/29 08:25:39;;;;;;;2.95;1.27;;;23.70;89.80;;;;;;5008828;28;20245;-74
2022/07/29 08:28:07;;;;;;;4.05;1.80;;;23.70;89.70;;;;;;5003260;28;20259;-75
2022/07/29 08:30:35;;;;;;;4.90;1.70;;;23.80;89.40;;;;;;5006703;28;20187;-75
2022/07/29 08:33:01;;;;;;;5.60;1.73;;;23.80;89.50;;;;;;5006472;28;20179;-74
2022/07/29 08:35:27;;;;;;;4.88;1.80;;;23.80;89.50;;;;;;5005617;28;20202;-76
2022/07/29 08:37:53;;;;;;;4.38;1.50;;;23.90;89.50;;;;;;5002069;28;20213;-73
2022/07/29 08:40:23;;;;;;;4.63;1.80;;;23.90;89.30;;;;;;5003903;28;20423;-75
2022/07/29 08:42:51;;;;;;;2.65;1.60;;;24.00;89.20;;;;;;5005351;28;20184;-72
2022/07/29 08:45:19;;;;;;;3.33;1.45;;;24.00;88.90;;;;;;5002591;28;20183;-74
2022/07/29 08:47:46;;;;;;;3.55;1.40;;;24.00;88.90;;;;;;5003375;28;21834;-74
2022/07/29 08:50:11;;;;;;;2.50;1.50;;;24.10;88.60;;;;;;5006483;28;20191;-74
2022/07/29 08:52:39;;;;;;;6.90;1.52;;;24.10;88.20;;;;;;5003346;28;20214;-73
2022/07/29 08:55:13;;;;;;;1.80;1.10;;;24.10;88.50;;;;;;5005058;28;20221;-74
2022/07/29 08:57:43;;;;;;;3.13;1.13;;;24.10;88.20;;;;;;5001120;28;20202;-73
2022/07/29 09:00:10;;;;;;;2.78;1.58;;;24.20;88.30;;;;;;5002344;28;20188;-74
2022/07/29 09:02:40;;;;;;;4.00;1.45;;;24.20;88.10;;;;;;5004295;28;20172;-73
2022/07/29 09:05:06;;;;;;;2.17;1.40;;;24.30;87.60;;;;;;5005618;28;20203;-77
2022/07/29 09:07:37;;;;;;;3.95;1.70;;;24.40;87.50;;;;;;5003974;28;20218;-75
2022/07/29 09:10:06;;;;;;;3.63;1.80;;;24.40;87.40;;;;;;5006610;28;20209;-75
2022/07/29 09:12:37;;;;;;;3.72;1.45;;;24.50;87.10;;;;;;5002600;28;20206;-75
2022/07/29 09:15:03;;;;;;;2.58;1.30;;;24.50;86.70;;;;;;5001342;28;20191;-76
2022/07/29 09:17:49;;;;;;;5.47;1.50;;;24.60;86.60;;;;;;5004854;28;20226;-71
2022/07/29 09:20:24;;;;;;;2.75;1.75;;;24.60;85.90;;;;;;5005541;28;20194;-74
2022/07/29 09:22:53;;;;;;;2.60;1.70;;;24.60;86.00;;;;;;5003562;28;20199;-68
2022/07/29 09:25:35;;;;;;;3.60;1.63;;;24.70;86.20;;;;;;5004477;28;20242;-66
2022/07/29 09:28:11;;;;;;;4.07;1.70;;;24.70;85.90;;;;;;5010839;28;20198;-67
2022/07/29 09:30:51;;;;;;;4.10;1.67;;;24.80;85.90;;;;;;5011636;28;20194;-67
2022/07/29 09:33:17;;;;;;;3.63;1.70;;;24.90;85.40;;;;;;5011938;28;20187;-72
2022/07/29 09:35:44;;;;;;;3.60;1.77;;;24.90;86.20;;;;;;5011644;28;20214;-75
2022/07/29 09:38:14;;;;;;;3.10;1.60;;;25.00;86.40;;;;;;5012982;28;20246;-73
2022/07/29 09:40:40;;;;;;;5.45;1.90;;;25.10;86.20;;;;;;5013163;28;20183;-72
2022/07/29 09:43:15;;;;;;;4.15;1.70;;;25.10;86.30;;;;;;5005191;28;20270;-76
2022/07/29 09:45:41;;;;;;;5.95;2.05;;;25.20;85.70;;;;;;5009915;28;20224;-70
2022/07/29 09:48:23;;;;;;;5.18;1.65;;;25.20;85.80;;;;;;5009832;28;20207;-70
2022/07/29 09:50:49;;;;;;;5.10;1.52;;;25.20;85.20;;;;;;5011223;28;20214;-72
2022/07/29 09:53:36;;;;;;;3.03;1.83;;;25.30;85.60;;;;;;5009078;28;20262;-73
2022/07/29 09:56:02;;;;;;;3.65;1.65;;;25.30;84.80;;;;;;5009369;28;20206;-68
2022/07/29 09:58:28;;;;;;;4.50;1.50;;;25.30;85.10;;;;;;5012728;28;20211;-69
2022/07/29 10:00:54;;;;;;;3.35;1.60;;;25.30;84.90;;;;;;5011392;28;20207;-71
2022/07/29 10:03:20;;;;;;;3.65;1.67;;;25.40;84.70;;;;;;5011052;28;20195;-69
2022/07/29 10:06:05;;;;;;;3.45;1.70;;;25.40;85.00;;;;;;5009404;28;20203;-73
2022/07/29 10:08:31;;;;;;;2.75;1.60;;;25.50;85.20;;;;;;5011900;28;20321;-69
2022/07/29 10:11:16;;;;;;;3.65;1.90;;;25.60;85.30;;;;;;5011798;28;20175;-72
2022/07/29 10:13:45;;;;;;;4.05;1.90;;;25.80;84.30;;;;;;5011948;28;20751;-68
2022/07/29 10:16:12;;;;;;;5.63;1.85;;;25.90;85.00;;;;;;5011344;28;20211;-70
2022/07/29 10:18:41;;;;;;;3.97;1.60;;;26.00;84.70;;;;;;5012304;28;20187;-74
2022/07/29 10:21:09;;;;;;;3.63;1.70;;;26.20;84.30;;;;;;5011269;28;20191;-72
2022/07/29 10:23:38;;;;;;;3.20;1.60;;;26.30;83.90;;;;;;5010897;28;20159;-73
2022/07/29 10:26:04;;;;;;;3.70;1.70;;;26.40;84.00;;;;;;5012399;28;20191;-76
2022/07/29 10:28:31;;;;;;;7.10;1.98;;;26.50;83.90;;;;;;5011974;28;20239;-74
2022/07/29 10:31:07;;;;;;;3.13;1.70;;;26.60;83.60;;;;;;5010119;28;20210;-69
2022/07/29 10:33:43;;;;;;;3.17;1.50;;;26.70;82.60;;;;;;5012434;28;20174;-72
2022/07/29 10:36:32;;;;;;;2.80;1.45;;;26.90;82.90;;;;;;5011946;28;20291;-71
2022/07/29 10:39:28;;;;;;;2.20;1.38;;;27.20;82.10;;;;;;5012049;28;20198;-75
2022/07/29 10:42:17;;;;;;;2.20;1.58;;;27.40;81.70;;;;;;5012065;28;20187;-68
2022/07/29 10:44:45;;;;;;;2.97;1.58;;;27.70;81.10;;;;;;5007267;28;20198;-72
2022/07/29 10:47:25;;;;;;;3.30;1.60;;;27.90;81.30;;;;;;5011045;28;20168;-70
2022/07/29 10:49:58;;;;;;;4.10;1.60;;;28.10;79.40;;;;;;5010847;28;20191;-75
2022/07/29 10:52:27;;;;;;;2.13;1.50;;;28.10;79.40;;;;;;5006785;28;20187;-71
2022/07/29 10:54:54;;;;;;;2.58;1.50;;;28.20;81.00;;;;;;5012945;28;20227;-72
2022/07/29 10:57:27;;;;;;;2.47;1.70;;;28.40;80.00;;;;;;5005418;28;20211;-73
2022/07/29 11:00:08;;;;;;;2.80;1.70;;;28.50;78.80;;;;;;5016457;28;20175;-75
2022/07/29 11:02:37;;;;;;;3.38;1.40;;;28.70;76.50;;;;;;5023073;28;20210;-71
2022/07/29 11:05:09;;;;;;;3.17;1.50;;;28.70;77.30;;;;;;5005328;28;20182;-72
2022/07/29 11:07:37;;;;;;;4.50;1.58;;;28.80;76.50;;;;;;5012904;28;20183;-73
2022/07/29 11:10:12;;;;;;;2.33;1.42;;;28.80;76.60;;;;;;5014875;28;20274;-70
2022/07/29 11:12:38;;;;;;;1.98;1.40;;;28.80;75.10;;;;;;5018330;28;20213;-70
2022/07/29 11:15:22;;;;;;;2.30;1.45;;;28.90;75.80;;;;;;5022073;28;20204;-69
2022/07/29 11:17:53;;;;;;;3.88;2.20;;;28.90;75.70;;;;;;5013458;28;20194;-74
2022/07/29 11:20:53;;;;;;;3.42;1.85;;;28.90;72.30;;;;;;5017098;28;20204;-71
2022/07/29 11:23:35;;;;;;;4.35;1.88;;;28.90;73.10;;;;;;5013706;28;20164;-70
2022/07/29 11:26:27;;;;;;;2.85;2.00;;;28.90;71.90;;;;;;5013934;28;20187;-71
2022/07/29 11:29:03;;;;;;;4.95;2.10;;;28.90;73.20;;;;;;5013204;28;20189;-69
2022/07/29 11:31:35;;;;;;;3.28;1.92;;;28.90;73.40;;;;;;5012781;28;20182;-73
2022/07/29 11:34:19;;;;;;;3.05;1.90;;;28.90;73.20;;;;;;5019975;28;20204;-68
2022/07/29 11:37:13;;;;;;;2.70;1.73;;;29.00;72.50;;;;;;5028682;28;20242;-72
2022/07/29 11:39:39;;;;;;;3.72;2.00;;;29.20;71.70;;;;;;5020596;28;20194;-72
2022/07/29 11:42:23;;;;;;;4.20;1.83;;;29.30;73.30;;;;;;5013539;28;20194;-72
2022/07/29 11:44:58;;;;;;;2.67;1.70;;;29.50;71.80;;;;;;5017605;28;20179;-71
2022/07/29 11:47:25;;;;;;;3.90;1.83;;;29.50;71.70;;;;;;5024522;28;20189;-69
2022/07/29 11:49:54;;;;;;;5.88;1.77;;;29.60;72.10;;;;;;5012565;28;20179;-74
2022/07/29 11:52:20;;;;;;;3.65;1.77;;;29.70;71.90;;;;;;4974734;28;1158198;-74
2022/07/29 11:54:52;;;;;;;3.35;2.05;;;29.70;71.10;;;;;;5014058;28;20282;-71
2022/07/29 11:57:19;;;;;;;2.88;1.67;;;29.80;69.10;;;;;;5015190;28;20218;-72
2022/07/29 11:59:46;;;;;;;3.55;1.80;;;29.90;70.30;;;;;;5014644;28;20195;-72
2022/07/29 12:02:16;;;;;;;2.40;1.50;;;29.90;68.40;;;;;;5015160;28;20340;-70
2022/07/29 12:04:49;;;;;;;2.17;1.40;;;30.00;68.30;;;;;;5009046;28;20210;-70
2022/07/29 12:07:20;;;;;;;4.55;1.70;;;30.00;63.80;;;;;;5010453;28;20199;-70
2022/07/29 12:09:53;;;;;;;2.88;1.30;;;29.90;66.60;;;;;;5002117;28;20212;-74
2022/07/29 12:12:24;;;;;;;3.75;1.50;;;29.70;65.20;;;;;;5008387;28;20294;-70
2022/07/29 12:14:54;;;;;;;4.97;1.60;;;29.60;66.70;;;;;;5026304;28;20191;-72
2022/07/29 12:17:34;;;;;;;2.67;1.40;;;29.70;67.10;;;;;;5007012;28;20444;-74
2022/07/29 12:20:04;;;;;;;3.00;1.52;;;29.70;66.30;;;;;;5010226;28;20171;-75
2022/07/29 12:22:33;;;;;;;4.05;1.67;;;29.90;66.40;;;;;;5013582;28;20170;-69
2022/07/29 12:25:05;;;;;;;3.15;1.30;;;30.00;66.40;;;;;;5009569;28;20185;-71
2022/07/29 12:27:32;;;;;;;3.15;1.50;;;30.00;65.60;;;;;;5009864;28;20415;-73
2022/07/29 12:30:00;;;;;;;3.08;1.60;;;30.10;65.30;;;;;;5008335;28;20222;-72
2022/07/29 12:32:42;;;;;;;2.30;1.40;;;30.20;64.40;;;;;;5013923;28;20218;-73
2022/07/29 12:35:11;;;;;;;3.85;1.48;;;30.30;64.10;;;;;;5013989;28;20250;-69
2022/07/29 12:37:41;;;;;;;1.88;1.30;;;30.40;64.70;;;;;;5014501;28;20199;-72
2022/07/29 12:40:08;;;;;;;1.80;1.30;;;30.50;64.50;;;;;;5015029;28;20186;-70
2022/07/29 12:42:34;;;;;;;2.63;1.40;;;30.50;64.70;;;;;;5013328;28;20197;-69
2022/07/29 12:45:01;;;;;;;3.40;1.40;;;30.60;64.90;;;;;;5012048;28;20183;-75
2022/07/29 12:47:27;;;;;;;1.95;1.33;;;30.70;65.10;;;;;;5001501;28;20203;-73
2022/07/29 12:50:17;;;;;;;1.80;1.50;;;30.80;63.40;;;;;;5013247;28;20203;-70
2022/07/29 12:52:47;;;;;;;2.45;1.42;;;30.80;62.50;;;;;;5004494;28;20217;-75
2022/07/29 12:55:15;;;;;;;2.60;1.27;;;30.80;62.40;;;;;;5012960;28;20179;-81
2022/07/29 12:57:48;;;;;;;2.90;1.20;;;30.70;62.10;;;;;;5011534;28;20214;-78
2022/07/29 13:00:21;;;;;;;2.47;1.50;;;30.60;61.20;;;;;;5012259;28;20231;-74
2022/07/29 13:02:58;;;;;;;3.35;1.70;;;30.50;61.10;;;;;;5011202;28;20194;-73